Time;durP1;ratioP1;P1;durP2;ratioP2;P2;SDS_P1;SDS_P2;PMS_P1;PMS_P2;Temp;Humidity;BMP_temperature;BMP_pressure;BME280_temperature;BME280_humidity;BME280_pressure;Samples;Min_cycle;Max_cycle;Signal;HPM_P1;HPM_P2
2024/02/29 00:00:09;;;;;;;18.75;9.10;;;3.30;99.90;;;;;;5049379;28;20047;-51
2024/02/29 00:02:35;;;;;;;22.15;8.50;;;3.20;99.90;;;;;;5047858;28;20021;-54
2024/02/29 00:05:00;;;;;;;22.13;9.68;;;3.20;99.90;;;;;;5049071;28;20028;-51
2024/02/29 00:07:26;;;;;;;15.25;7.68;;;3.10;99.90;;;;;;5048837;28;20033;-52
2024/02/29 00:09:52;;;;;;;18.67;8.80;;;3.10;99.90;;;;;;5047154;28;20071;-52
2024/02/29 00:12:17;;;;;;;18.45;8.88;;;3.00;99.90;;;;;;5047508;28;20078;-55
2024/02/29 00:14:44;;;;;;;18.13;9.40;;;3.00;99.90;;;;;;5048186;28;20035;-51
2024/02/29 00:17:10;;;;;;;20.00;9.40;;;3.00;99.90;;;;;;5048326;28;20028;-53
2024/02/29 00:19:36;;;;;;;20.65;9.70;;;3.00;99.90;;;;;;5046264;28;20394;-59
2024/02/29 00:22:02;;;;;;;24.42;9.70;;;3.00;99.90;;;;;;5046421;28;20033;-55
2024/02/29 00:24:28;;;;;;;21.95;9.52;;;3.00;99.90;;;;;;5045138;28;20036;-57
2024/02/29 00:26:53;;;;;;;19.38;8.35;;;2.90;99.90;;;;;;5048202;28;20134;-56
2024/02/29 00:29:19;;;;;;;21.38;10.48;;;2.90;99.90;;;;;;5048076;28;20170;-56
2024/02/29 00:31:45;;;;;;;22.83;9.68;;;2.90;99.90;;;;;;5045316;28;20033;-54
2024/02/29 00:34:13;;;;;;;23.73;10.02;;;2.90;99.90;;;;;;5042146;28;20041;-54
2024/02/29 00:36:39;;;;;;;27.90;10.57;;;2.90;99.90;;;;;;5036372;28;20048;-54
2024/02/29 00:39:07;;;;;;;25.65;10.02;;;2.90;99.90;;;;;;5039906;28;20037;-56
2024/02/29 00:41:33;;;;;;;27.65;10.43;;;2.90;99.90;;;;;;5044334;28;20567;-57
2024/02/29 00:43:58;;;;;;;22.88;10.57;;;2.90;99.90;;;;;;5046713;28;20025;-57
2024/02/29 00:46:24;;;;;;;25.40;9.63;;;2.90;99.90;;;;;;5046659;28;20060;-54
2024/02/29 00:48:49;;;;;;;22.67;9.90;;;2.90;99.90;;;;;;5046834;28;20061;-55
2024/02/29 00:51:15;;;;;;;26.38;11.05;;;2.90;99.90;;;;;;5028861;28;20098;-54
2024/02/29 00:53:41;;;;;;;25.67;11.02;;;2.90;99.90;;;;;;5046726;28;20075;-55
2024/02/29 00:56:06;;;;;;;22.10;10.02;;;2.90;99.90;;;;;;5044312;28;20025;-55
2024/02/29 00:58:32;;;;;;;25.27;11.02;;;2.90;99.90;;;;;;5041869;28;20048;-56
2024/02/29 01:00:58;;;;;;;31.17;11.90;;;2.90;99.90;;;;;;5050445;28;20067;-57
2024/02/29 01:03:23;;;;;;;29.92;11.55;;;2.90;99.90;;;;;;5050492;28;20118;-56
2024/02/29 01:05:49;;;;;;;27.23;10.77;;;2.90;99.90;;;;;;5050641;28;20173;-55
2024/02/29 01:08:15;;;;;;;26.38;10.70;;;2.90;99.90;;;;;;5049031;28;20083;-56
2024/02/29 01:10:40;;;;;;;27.38;11.38;;;2.80;99.90;;;;;;5047565;28;20029;-56
2024/02/29 01:13:06;;;;;;;28.88;11.40;;;2.80;99.90;;;;;;5047019;28;20025;-56
2024/02/29 01:15:31;;;;;;;27.80;11.63;;;2.80;99.90;;;;;;5048281;28;20519;-54
2024/02/29 01:17:57;;;;;;;26.20;10.45;;;2.80;99.90;;;;;;5045998;28;20021;-53
2024/02/29 01:20:23;;;;;;;27.40;11.50;;;2.70;99.90;;;;;;5046874;28;20033;-57
2024/02/29 01:22:48;;;;;;;28.30;11.30;;;2.70;99.90;;;;;;5049947;28;20021;-52
2024/02/29 01:25:14;;;;;;;27.63;11.57;;;2.60;99.90;;;;;;5047358;28;20561;-56
2024/02/29 01:27:39;;;;;;;35.95;13.38;;;2.60;99.90;;;;;;5049343;28;20515;-56
2024/02/29 01:30:06;;;;;;;29.30;12.43;;;2.60;99.90;;;;;;5044568;28;20033;-57
2024/02/29 01:32:31;;;;;;;27.55;11.88;;;2.60;99.90;;;;;;5046246;28;20112;-56
2024/02/29 01:34:58;;;;;;;31.90;12.07;;;2.50;99.90;;;;;;5053269;28;20104;-54
2024/02/29 01:37:24;;;;;;;29.50;12.75;;;2.60;99.90;;;;;;5050460;28;20402;-56
2024/02/29 01:39:51;;;;;;;33.90;13.10;;;2.50;99.90;;;;;;5050081;28;20072;-54
2024/02/29 01:42:16;;;;;;;35.53;12.73;;;2.60;99.90;;;;;;5048835;28;20433;-54
2024/02/29 01:44:55;;;;;;;29.88;12.05;;;2.60;99.90;;;;;;5050825;28;20490;-56
2024/02/29 01:47:25;;;;;;;28.65;11.80;;;2.60;99.90;;;;;;5051504;28;20064;-56
2024/02/29 01:49:55;;;;;;;31.30;12.20;;;2.50;99.90;;;;;;5050904;28;20059;-57
2024/02/29 01:52:22;;;;;;;22.30;11.10;;;2.50;99.90;;;;;;5050849;28;20112;-55
2024/02/29 01:54:48;;;;;;;32.58;13.35;;;2.40;99.90;;;;;;5044662;28;20104;-56
2024/02/29 01:57:13;;;;;;;29.35;13.23;;;2.50;99.90;;;;;;5050623;28;20112;-55
2024/02/29 01:59:40;;;;;;;35.13;12.20;;;2.40;99.90;;;;;;5051594;28;20024;-54
2024/02/29 02:02:06;;;;;;;35.40;13.32;;;2.40;99.90;;;;;;5049392;28;20087;-56
2024/02/29 02:04:31;;;;;;;28.15;11.68;;;2.30;99.90;;;;;;5051430;28;20437;-61
2024/02/29 02:06:58;;;;;;;35.60;13.30;;;2.30;99.90;;;;;;5053492;28;20033;-53
2024/02/29 02:09:24;;;;;;;32.15;12.93;;;2.30;99.90;;;;;;5054129;28;20276;-54
2024/02/29 02:11:50;;;;;;;35.97;14.18;;;2.30;99.90;;;;;;5052723;28;20055;-56
2024/02/29 02:14:16;;;;;;;27.88;11.90;;;2.30;99.90;;;;;;5052533;28;20060;-55
2024/02/29 02:16:42;;;;;;;38.40;15.00;;;2.40;99.90;;;;;;5052569;28;20021;-56
2024/02/29 02:19:17;;;;;;;39.08;13.57;;;2.40;99.90;;;;;;5052490;28;20383;-57
2024/02/29 02:21:45;;;;;;;35.05;13.20;;;2.40;99.90;;;;;;5053181;28;20033;-55
2024/02/29 02:24:11;;;;;;;29.80;12.93;;;2.30;99.90;;;;;;5054208;28;20036;-56
2024/02/29 02:26:36;;;;;;;30.65;12.23;;;2.30;99.90;;;;;;5052074;28;20466;-54
2024/02/29 02:29:03;;;;;;;36.45;13.90;;;2.30;99.90;;;;;;5050659;28;20036;-53
2024/02/29 02:31:29;;;;;;;30.88;12.10;;;2.30;99.90;;;;;;5051631;28;20044;-55
2024/02/29 02:33:58;;;;;;;35.22;13.52;;;2.20;99.90;;;;;;5053313;28;20029;-62
2024/02/29 02:36:24;;;;;;;39.25;13.75;;;2.20;99.90;;;;;;5054301;28;20029;-54
2024/02/29 02:38:50;;;;;;;33.42;12.75;;;2.20;99.90;;;;;;5051373;28;20025;-57
2024/02/29 02:41:16;;;;;;;32.35;12.80;;;2.20;99.90;;;;;;5051951;28;20047;-56
2024/02/29 02:43:44;;;;;;;34.33;13.02;;;2.20;99.90;;;;;;5051047;28;20036;-55
2024/02/29 02:46:10;;;;;;;36.78;13.00;;;2.20;99.90;;;;;;5052801;28;20063;-55
2024/02/29 02:48:35;;;;;;;34.28;13.00;;;2.10;99.90;;;;;;5053630;28;20060;-56
2024/02/29 02:51:01;;;;;;;36.60;13.35;;;2.10;99.90;;;;;;5052624;28;20025;-56
2024/02/29 02:53:26;;;;;;;28.63;11.93;;;2.10;99.90;;;;;;5051113;28;20036;-55
2024/02/29 02:55:52;;;;;;;35.38;13.00;;;2.10;99.90;;;;;;5052136;28;20060;-55
2024/02/29 02:58:17;;;;;;;37.38;13.43;;;2.00;99.90;;;;;;5057642;28;20025;-53
2024/02/29 03:00:43;;;;;;;32.42;12.38;;;2.00;99.90;;;;;;5051616;28;20052;-55
2024/02/29 03:03:09;;;;;;;33.25;12.02;;;2.00;99.90;;;;;;5053982;28;20021;-55
2024/02/29 03:05:34;;;;;;;33.60;12.98;;;1.90;99.90;;;;;;5054751;28;20024;-55
2024/02/29 03:08:00;;;;;;;34.63;13.48;;;1.90;99.90;;;;;;5056274;28;20494;-56
2024/02/29 03:10:26;;;;;;;31.55;12.27;;;1.90;99.90;;;;;;5052147;28;20072;-54
2024/02/29 03:12:52;;;;;;;40.17;12.60;;;1.90;99.90;;;;;;5054928;28;20037;-56
2024/02/29 03:15:18;;;;;;;33.35;14.10;;;1.90;99.90;;;;;;5052529;28;20029;-54
2024/02/29 03:17:43;;;;;;;40.38;14.35;;;1.90;99.90;;;;;;5053067;28;20398;-57
2024/02/29 03:20:13;;;;;;;38.03;14.25;;;1.90;99.90;;;;;;5052541;28;20529;-54
2024/02/29 03:22:42;;;;;;;42.22;14.35;;;1.90;99.90;;;;;;5050993;28;20594;-55
2024/02/29 03:25:09;;;;;;;35.75;13.77;;;1.90;99.90;;;;;;5052763;28;20047;-56
2024/02/29 03:27:35;;;;;;;34.17;13.02;;;1.90;99.90;;;;;;5052422;28;20032;-55
2024/02/29 03:30:01;;;;;;;36.05;13.90;;;2.00;99.90;;;;;;5052540;28;20025;-55
2024/02/29 03:32:27;;;;;;;35.20;12.57;;;2.00;99.90;;;;;;5051710;28;20036;-55
2024/02/29 03:34:52;;;;;;;33.90;13.57;;;2.00;99.90;;;;;;5054045;28;20545;-55
2024/02/29 03:37:18;;;;;;;31.00;13.68;;;2.10;99.90;;;;;;5051450;28;20017;-53
2024/02/29 03:39:44;;;;;;;33.13;11.30;;;2.10;99.90;;;;;;5051345;28;20017;-54
2024/02/29 03:42:10;;;;;;;32.72;12.40;;;2.10;99.90;;;;;;5049381;28;20032;-53
2024/02/29 03:44:35;;;;;;;29.17;11.38;;;2.00;99.90;;;;;;5054694;28;20509;-55
2024/02/29 03:47:01;;;;;;;25.05;11.32;;;2.10;99.90;;;;;;5060509;23;20037;-55
2024/02/29 03:49:27;;;;;;;25.38;11.52;;;2.00;99.90;;;;;;5052951;28;20029;-52
2024/02/29 03:51:52;;;;;;;32.15;12.13;;;2.00;99.90;;;;;;5054763;28;20109;-53
2024/02/29 03:54:18;;;;;;;30.77;12.18;;;2.00;99.90;;;;;;5054980;28;20509;-55
2024/02/29 03:56:43;;;;;;;38.50;12.63;;;2.00;99.90;;;;;;5063308;28;20540;-56
2024/02/29 03:59:09;;;;;;;30.00;12.77;;;2.00;99.90;;;;;;5071495;28;20118;-57
2024/02/29 04:01:36;;;;;;;27.80;11.38;;;2.00;99.90;;;;;;5071456;28;20028;-56
2024/02/29 04:04:02;;;;;;;28.55;10.88;;;2.00;99.90;;;;;;5070187;28;20025;-56
2024/02/29 04:06:27;;;;;;;25.35;10.32;;;2.10;99.90;;;;;;5071545;28;20029;-55
2024/02/29 04:08:53;;;;;;;24.42;10.52;;;2.00;99.90;;;;;;5070919;28;20024;-56
2024/02/29 04:11:19;;;;;;;28.90;10.63;;;2.00;99.90;;;;;;5069682;28;20492;-57
2024/02/29 04:13:45;;;;;;;33.45;11.45;;;2.00;99.90;;;;;;5067089;28;20025;-55
2024/02/29 04:16:11;;;;;;;26.88;10.75;;;2.10;99.90;;;;;;5068831;28;20020;-56
2024/02/29 04:18:39;;;;;;;26.40;11.00;;;2.00;99.90;;;;;;5070857;28;20385;-56
2024/02/29 04:21:04;;;;;;;23.02;10.38;;;2.00;99.90;;;;;;5072947;28;20058;-54
2024/02/29 04:23:30;;;;;;;27.92;12.10;;;2.00;99.90;;;;;;5071321;28;20102;-56
2024/02/29 04:25:55;;;;;;;23.60;10.55;;;2.00;99.90;;;;;;5073793;28;20582;-57
2024/02/29 04:28:21;;;;;;;34.83;11.07;;;2.00;99.90;;;;;;5067327;28;20055;-54
2024/02/29 04:30:46;;;;;;;27.65;11.07;;;2.00;99.90;;;;;;5069117;28;20130;-57
2024/02/29 04:33:12;;;;;;;24.17;10.88;;;2.00;99.90;;;;;;5063226;28;20119;-57
2024/02/29 04:35:38;;;;;;;31.55;12.05;;;2.00;99.90;;;;;;5072051;28;20477;-57
2024/02/29 04:38:03;;;;;;;32.05;11.07;;;2.00;99.90;;;;;;5073445;28;20029;-56
2024/02/29 04:40:29;;;;;;;34.63;11.75;;;2.00;99.90;;;;;;5069248;28;20505;-54
2024/02/29 04:42:55;;;;;;;28.63;11.70;;;2.00;99.90;;;;;;5068163;28;20029;-55
2024/02/29 04:45:23;;;;;;;30.27;11.65;;;2.00;99.90;;;;;;5071526;28;20028;-55
2024/02/29 04:47:49;;;;;;;33.47;11.85;;;2.00;99.90;;;;;;5051789;28;20079;-58
2024/02/29 04:50:15;;;;;;;28.17;11.02;;;2.10;99.90;;;;;;5075598;28;20028;-57
2024/02/29 04:52:40;;;;;;;26.13;11.38;;;2.10;99.90;;;;;;5066754;28;20450;-54
2024/02/29 04:55:06;;;;;;;28.70;12.30;;;2.10;99.90;;;;;;5070536;28;20027;-57
2024/02/29 04:57:32;;;;;;;31.10;12.00;;;2.00;99.90;;;;;;5069460;28;20017;-57
2024/02/29 04:59:57;;;;;;;27.45;11.98;;;2.00;99.90;;;;;;5072596;28;20111;-55
2024/02/29 05:02:23;;;;;;;28.00;12.27;;;2.10;99.90;;;;;;5070073;28;20066;-57
2024/02/29 05:04:48;;;;;;;27.15;11.27;;;2.00;99.90;;;;;;5073905;28;20028;-55
2024/02/29 05:07:14;;;;;;;26.83;12.77;;;2.10;99.90;;;;;;5071774;28;20021;-56
2024/02/29 05:09:40;;;;;;;34.40;11.55;;;2.10;99.90;;;;;;5070502;28;20041;-55
2024/02/29 05:12:06;;;;;;;27.20;10.52;;;2.10;99.90;;;;;;5070000;28;20539;-55
2024/02/29 05:14:31;;;;;;;33.40;13.02;;;2.10;99.90;;;;;;5070487;28;20063;-54
2024/02/29 05:16:57;;;;;;;30.88;12.77;;;2.10;99.90;;;;;;5069960;28;20486;-55
2024/02/29 05:19:22;;;;;;;30.63;12.30;;;2.10;99.90;;;;;;5069847;28;20039;-56
2024/02/29 05:21:51;;;;;;;31.73;11.32;;;2.10;99.90;;;;;;5068914;28;20024;-55
2024/02/29 05:24:17;;;;;;;31.80;11.57;;;2.10;99.90;;;;;;5065954;28;20025;-57
2024/02/29 05:26:43;;;;;;;28.48;12.45;;;2.10;99.90;;;;;;5069302;28;20036;-54
2024/02/29 05:29:09;;;;;;;26.30;11.55;;;2.20;99.90;;;;;;5070348;28;20028;-58
2024/02/29 05:31:35;;;;;;;24.95;10.27;;;2.10;99.90;;;;;;5072162;28;20099;-57
2024/02/29 05:34:00;;;;;;;31.95;11.27;;;2.20;99.90;;;;;;5070940;28;20025;-54
2024/02/29 05:36:26;;;;;;;22.98;10.60;;;2.20;99.90;;;;;;5052876;28;20124;-56
2024/02/29 05:38:51;;;;;;;28.52;11.65;;;2.10;99.90;;;;;;5071411;28;20108;-56
2024/02/29 05:41:17;;;;;;;28.13;12.13;;;2.10;99.90;;;;;;5071861;28;20036;-55
2024/02/29 05:43:44;;;;;;;31.38;12.57;;;2.00;99.90;;;;;;5055491;28;20396;-57
2024/02/29 05:46:10;;;;;;;27.50;10.32;;;2.00;99.90;;;;;;5075103;28;21607;-55
2024/02/29 05:48:37;;;;;;;27.77;10.77;;;2.00;99.90;;;;;;5074313;28;20033;-54
2024/02/29 05:51:03;;;;;;;27.27;10.68;;;2.00;99.90;;;;;;5070914;28;20032;-57
2024/02/29 05:53:29;;;;;;;29.08;11.02;;;2.00;99.90;;;;;;5073044;28;20033;-55
2024/02/29 05:55:54;;;;;;;26.60;11.48;;;2.00;99.90;;;;;;5076426;28;20035;-55
2024/02/29 05:58:20;;;;;;;23.95;10.18;;;1.90;99.90;;;;;;5078008;28;20389;-58
2024/02/29 06:00:46;;;;;;;20.48;9.82;;;2.00;99.90;;;;;;5073853;28;20036;-56
2024/02/29 06:03:11;;;;;;;25.58;9.80;;;2.10;99.90;;;;;;5073680;28;20043;-56
2024/02/29 06:05:38;;;;;;;29.73;11.82;;;2.10;99.90;;;;;;5073309;28;20036;-55
2024/02/29 06:08:04;;;;;;;26.35;9.60;;;2.10;99.90;;;;;;5074006;28;20024;-57
2024/02/29 06:10:30;;;;;;;26.80;11.65;;;2.10;99.90;;;;;;5073415;28;20112;-57
2024/02/29 06:12:56;;;;;;;23.23;10.40;;;2.20;99.90;;;;;;5073166;28;20040;-57
2024/02/29 06:15:22;;;;;;;19.92;9.50;;;2.20;99.90;;;;;;5073614;28;20497;-56
2024/02/29 06:17:49;;;;;;;27.05;10.35;;;2.20;99.90;;;;;;5073139;28;20040;-57
2024/02/29 06:20:15;;;;;;;26.90;11.10;;;2.30;99.90;;;;;;5074208;28;20024;-57
2024/02/29 06:22:41;;;;;;;26.08;9.77;;;2.30;99.90;;;;;;5072470;28;20038;-54
2024/02/29 06:25:09;;;;;;;26.63;10.98;;;2.30;99.90;;;;;;5072377;28;20099;-57
2024/02/29 06:27:35;;;;;;;19.98;9.75;;;2.30;99.90;;;;;;5073000;28;20024;-56
2024/02/29 06:30:02;;;;;;;19.80;8.68;;;2.30;99.90;;;;;;5074786;28;20474;-56
2024/02/29 06:32:28;;;;;;;24.85;9.20;;;2.30;99.90;;;;;;5073052;28;20052;-57
2024/02/29 06:34:53;;;;;;;24.83;9.60;;;2.40;99.90;;;;;;5072938;28;20055;-54
2024/02/29 06:37:19;;;;;;;23.30;9.15;;;2.40;99.90;;;;;;5071004;28;20470;-54
2024/02/29 06:39:45;;;;;;;27.95;9.48;;;2.50;99.90;;;;;;5073865;28;20029;-54
2024/02/29 06:42:11;;;;;;;19.83;8.98;;;2.60;99.90;;;;;;5071788;28;20040;-54
2024/02/29 06:44:37;;;;;;;17.55;8.07;;;2.60;99.90;;;;;;5072138;28;20032;-56
2024/02/29 06:47:02;;;;;;;29.40;10.43;;;2.70;99.90;;;;;;5073634;28;20573;-55
2024/02/29 06:49:28;;;;;;;17.38;8.30;;;2.80;99.90;;;;;;5071929;28;20501;-57
2024/02/29 06:51:53;;;;;;;23.17;8.75;;;2.90;99.90;;;;;;5070411;28;20535;-55
2024/02/29 06:54:19;;;;;;;19.83;8.77;;;3.00;99.90;;;;;;5073298;28;20546;-57
2024/02/29 06:56:47;;;;;;;20.83;8.77;;;3.00;99.90;;;;;;5074399;28;20024;-55
2024/02/29 06:59:13;;;;;;;17.50;7.93;;;3.10;99.90;;;;;;5072820;28;20029;-56
2024/02/29 07:01:38;;;;;;;17.67;7.95;;;3.20;99.90;;;;;;5074624;28;20035;-58
2024/02/29 07:04:04;;;;;;;15.90;8.45;;;3.30;99.90;;;;;;5072585;28;20020;-55
2024/02/29 07:06:30;;;;;;;16.67;7.70;;;3.40;99.90;;;;;;5071909;28;20032;-57
2024/02/29 07:08:55;;;;;;;16.50;7.30;;;3.50;99.90;;;;;;5072586;28;20035;-55
2024/02/29 07:11:21;;;;;;;16.52;6.70;;;3.70;99.90;;;;;;5072569;28;20492;-55
2024/02/29 07:13:47;;;;;;;19.15;8.13;;;3.80;99.90;;;;;;5072773;28;20376;-54
2024/02/29 07:16:13;;;;;;;18.88;7.95;;;3.90;99.90;;;;;;5072548;28;20045;-58
2024/02/29 07:18:39;;;;;;;22.50;7.65;;;4.00;99.90;;;;;;5072906;28;20027;-57
2024/02/29 07:21:05;;;;;;;16.48;7.03;;;4.10;99.90;;;;;;5072458;28;20028;-56
2024/02/29 07:23:31;;;;;;;18.27;7.47;;;4.20;99.90;;;;;;5072572;28;20037;-55
2024/02/29 07:25:58;;;;;;;17.63;7.75;;;4.30;99.90;;;;;;5077682;28;20028;-56
2024/02/29 07:28:23;;;;;;;15.52;8.10;;;4.50;99.90;;;;;;5076050;28;20027;-56
2024/02/29 07:30:49;;;;;;;15.32;7.68;;;4.60;99.90;;;;;;5075982;28;20028;-56
2024/02/29 07:33:14;;;;;;;18.05;7.45;;;4.70;99.90;;;;;;5071408;28;20107;-57
2024/02/29 07:35:40;;;;;;;16.95;7.38;;;4.80;99.90;;;;;;5068053;28;20447;-57
2024/02/29 07:38:05;;;;;;;19.83;8.55;;;4.90;99.90;;;;;;5069102;28;20082;-56
2024/02/29 07:40:31;;;;;;;14.48;6.90;;;5.00;99.90;;;;;;5071420;28;20035;-58
2024/02/29 07:42:56;;;;;;;18.60;8.20;;;5.10;99.90;;;;;;5071281;28;20478;-57
2024/02/29 07:45:22;;;;;;;16.25;6.75;;;5.10;99.90;;;;;;5070325;28;20029;-57
2024/02/29 07:47:48;;;;;;;17.70;7.78;;;5.20;99.90;;;;;;5071488;28;20040;-56
2024/02/29 07:50:14;;;;;;;16.80;7.00;;;5.30;99.90;;;;;;5065128;28;20024;-57
2024/02/29 07:52:39;;;;;;;18.27;7.57;;;5.40;99.90;;;;;;5068369;28;20032;-57
2024/02/29 07:55:05;;;;;;;15.13;6.85;;;5.50;99.90;;;;;;5071720;28;20028;-58
2024/02/29 07:57:31;;;;;;;19.00;8.13;;;5.60;99.90;;;;;;5070807;28;20377;-57
2024/02/29 07:59:57;;;;;;;13.10;6.80;;;5.60;99.90;;;;;;5072598;28;20042;-56
2024/02/29 08:02:22;;;;;;;15.68;7.25;;;5.70;99.90;;;;;;5073635;28;20482;-56
2024/02/29 08:04:48;;;;;;;16.00;7.38;;;5.70;99.90;;;;;;5071488;28;20101;-56
2024/02/29 08:07:14;;;;;;;19.75;7.75;;;5.80;99.90;;;;;;5071130;28;20385;-56
2024/02/29 08:09:40;;;;;;;15.90;6.75;;;5.80;99.90;;;;;;5071342;28;20028;-58
2024/02/29 08:12:06;;;;;;;17.02;6.75;;;5.90;99.90;;;;;;5061189;28;20401;-57
2024/02/29 08:14:32;;;;;;;17.45;7.03;;;5.90;99.90;;;;;;5057937;28;20032;-56
2024/02/29 08:16:57;;;;;;;19.58;7.40;;;6.00;99.90;;;;;;5062391;28;20120;-58
2024/02/29 08:19:23;;;;;;;15.45;7.07;;;6.00;99.90;;;;;;5058161;28;20045;-58
2024/02/29 08:21:49;;;;;;;17.45;7.38;;;6.10;99.90;;;;;;5046546;28;20029;-57
2024/02/29 08:24:15;;;;;;;16.00;7.20;;;6.10;99.90;;;;;;5069392;28;20040;-58
2024/02/29 08:26:41;;;;;;;15.48;6.28;;;6.10;99.90;;;;;;5059091;28;20020;-57
2024/02/29 08:29:07;;;;;;;13.43;5.70;;;6.20;99.90;;;;;;5062108;28;20414;-56
2024/02/29 08:31:33;;;;;;;11.57;6.25;;;6.20;99.90;;;;;;5062535;28;20048;-56
2024/02/29 08:33:59;;;;;;;13.85;6.43;;;6.20;99.90;;;;;;5045096;28;20032;-57
2024/02/29 08:36:25;;;;;;;13.30;6.00;;;6.40;99.90;;;;;;5051497;28;20397;-57
2024/02/29 08:38:50;;;;;;;13.45;6.00;;;6.40;99.90;;;;;;5070508;28;20103;-58
2024/02/29 08:41:17;;;;;;;11.85;5.65;;;6.50;99.90;;;;;;5068028;28;20021;-56
2024/02/29 08:43:43;;;;;;;14.02;6.60;;;6.50;99.90;;;;;;5061291;28;20043;-56
2024/02/29 08:46:09;;;;;;;14.15;6.72;;;6.50;99.90;;;;;;5068579;28;20387;-54
2024/02/29 08:48:35;;;;;;;14.73;6.30;;;6.60;99.90;;;;;;5067968;28;20394;-58
2024/02/29 08:51:01;;;;;;;12.48;6.88;;;6.70;99.90;;;;;;5069351;28;20036;-57
2024/02/29 08:53:27;;;;;;;14.85;6.47;;;6.80;99.90;;;;;;5062678;28;20071;-57
2024/02/29 08:55:52;;;;;;;14.10;5.75;;;6.90;99.90;;;;;;5063395;28;20107;-56
2024/02/29 08:58:18;;;;;;;11.80;5.85;;;6.90;99.90;;;;;;5069348;28;20393;-56
2024/02/29 09:00:44;;;;;;;15.50;6.25;;;7.10;99.90;;;;;;5067535;28;20032;-60
2024/02/29 09:03:10;;;;;;;11.38;6.13;;;7.10;99.90;;;;;;5073018;28;20432;-55
2024/02/29 09:05:36;;;;;;;14.05;6.68;;;7.20;99.90;;;;;;5064980;28;20024;-57
2024/02/29 09:08:01;;;;;;;13.10;5.65;;;7.40;99.90;;;;;;5057988;28;20099;-58
2024/02/29 09:10:27;;;;;;;14.60;6.35;;;7.40;99.90;;;;;;5058392;28;20103;-57
2024/02/29 09:12:54;;;;;;;11.43;5.55;;;7.40;99.90;;;;;;5068218;28;20036;-58
2024/02/29 09:15:20;;;;;;;12.77;5.45;;;7.50;99.90;;;;;;5061533;28;20051;-57
2024/02/29 09:17:45;;;;;;;13.50;5.72;;;7.50;99.90;;;;;;5066419;28;20075;-57
2024/02/29 09:20:11;;;;;;;14.02;5.63;;;7.60;99.90;;;;;;5065376;28;20382;-55
2024/02/29 09:22:36;;;;;;;10.30;5.70;;;7.60;99.90;;;;;;5070370;28;20547;-57
2024/02/29 09:25:03;;;;;;;10.13;4.85;;;7.80;99.90;;;;;;5060286;28;20501;-58
2024/02/29 09:27:29;;;;;;;14.65;5.63;;;7.80;99.90;;;;;;5066676;28;20115;-60
2024/02/29 09:29:54;;;;;;;10.18;4.95;;;8.30;99.90;;;;;;5066791;28;20104;-58
2024/02/29 09:32:20;;;;;;;9.25;5.32;;;9.00;99.90;;;;;;5070601;28;20035;-59
2024/02/29 09:34:45;;;;;;;11.52;5.57;;;10.10;99.90;;;;;;5057508;28;20032;-58
2024/02/29 09:37:11;;;;;;;9.25;4.90;;;10.80;99.90;;;;;;5059883;28;20033;-55
2024/02/29 09:39:37;;;;;;;11.68;6.78;;;12.00;96.30;;;;;;5056637;28;20025;-58
2024/02/29 09:42:03;;;;;;;9.18;5.18;;;12.60;95.10;;;;;;5063597;28;20591;-58
2024/02/29 09:44:30;;;;;;;11.82;5.60;;;13.10;93.60;;;;;;5061292;28;20032;-59
2024/02/29 09:46:56;;;;;;;8.95;4.82;;;13.30;93.40;;;;;;5062974;28;20124;-58
2024/02/29 09:49:22;;;;;;;10.88;6.30;;;13.70;92.60;;;;;;5060465;28;20116;-59
2024/02/29 09:51:48;;;;;;;9.68;5.15;;;14.10;93.00;;;;;;5041296;28;20033;-58
2024/02/29 09:54:17;;;;;;;11.20;6.18;;;13.90;91.40;;;;;;5054738;28;20036;-59
2024/02/29 09:56:43;;;;;;;8.95;5.32;;;14.30;92.20;;;;;;5062859;28;20029;-58
2024/02/29 09:59:15;;;;;;;8.50;5.47;;;14.40;90.40;;;;;;5037167;28;20528;-59
2024/02/29 10:01:55;;;;;;;8.98;5.15;;;14.60;91.00;;;;;;5065341;28;20032;-59
2024/02/29 10:04:20;;;;;;;9.48;5.68;;;15.30;87.50;;;;;;5062507;28;20029;-59
2024/02/29 10:06:46;;;;;;;8.77;4.95;;;15.40;88.30;;;;;;5062967;28;20046;-59
2024/02/29 10:09:11;;;;;;;8.30;4.80;;;15.80;85.10;;;;;;5067803;28;20576;-60
2024/02/29 10:11:40;;;;;;;7.97;4.25;;;15.50;85.50;;;;;;5061441;28;20083;-59
2024/02/29 10:14:18;;;;;;;9.75;5.28;;;15.80;83.40;;;;;;5071842;23;20047;-52
2024/02/29 10:16:49;;;;;;;9.00;4.80;;;15.30;83.80;;;;;;5070550;28;20440;-52
2024/02/29 10:19:14;;;;;;;8.10;4.80;;;15.00;84.50;;;;;;5068066;28;20028;-51
2024/02/29 10:21:40;;;;;;;9.55;4.57;;;14.30;84.20;;;;;;5068644;28;20033;-54
2024/02/29 10:24:05;;;;;;;10.93;5.45;;;13.60;85.40;;;;;;5082509;28;20036;-52
2024/02/29 10:26:31;;;;;;;8.63;4.65;;;12.60;87.90;;;;;;5088285;28;20043;-52
2024/02/29 10:29:04;;;;;;;6.70;4.68;;;12.50;89.60;;;;;;5093249;28;20027;-54
2024/02/29 10:31:30;;;;;;;9.18;4.57;;;12.40;90.70;;;;;;5091158;28;20032;-53
2024/02/29 10:33:55;;;;;;;7.22;3.90;;;12.40;90.00;;;;;;5090061;28;20072;-52
2024/02/29 10:36:21;;;;;;;8.93;5.00;;;12.30;90.80;;;;;;5091426;28;20094;-51
2024/02/29 10:38:49;;;;;;;11.38;5.63;;;12.20;90.60;;;;;;5092374;28;20024;-55
2024/02/29 10:41:16;;;;;;;9.05;4.25;;;12.10;90.80;;;;;;5071445;28;20013;-52
2024/02/29 10:43:45;;;;;;;7.93;5.13;;;12.10;90.80;;;;;;5090443;28;20043;-52
2024/02/29 10:46:14;;;;;;;12.00;5.00;;;12.00;90.70;;;;;;5091977;28;20028;-51
2024/02/29 10:49:01;;;;;;;9.80;4.68;;;11.80;90.60;;;;;;5092190;28;20024;-51
2024/02/29 10:51:43;;;;;;;9.35;4.72;;;11.80;90.80;;;;;;5092255;28;20103;-51
2024/02/29 10:54:21;;;;;;;8.45;5.05;;;11.80;91.30;;;;;;5091522;28;20028;-52
2024/02/29 10:56:48;;;;;;;10.07;4.20;;;11.70;90.20;;;;;;5083835;28;20020;-55
2024/02/29 10:59:16;;;;;;;6.93;4.03;;;11.70;91.20;;;;;;5073111;28;20051;-51
2024/02/29 11:01:43;;;;;;;9.70;4.97;;;11.80;91.00;;;;;;5087702;28;20048;-51
2024/02/29 11:04:09;;;;;;;9.25;4.55;;;11.80;91.40;;;;;;5083733;28;20462;-53
2024/02/29 11:06:42;;;;;;;10.35;5.05;;;11.60;91.30;;;;;;5077391;28;20025;-53
2024/02/29 11:09:09;;;;;;;;;;;11.60;91.40;;;;;;5087750;28;20031;-54
2024/02/29 11:11:34;;;;;;;7.60;4.28;;;11.40;91.30;;;;;;5089772;28;20289;-52
2024/02/29 11:14:10;;;;;;;10.48;3.67;;;11.30;91.50;;;;;;5091780;28;20024;-52
2024/02/29 11:16:40;;;;;;;8.65;4.10;;;11.20;92.00;;;;;;5087466;28;20020;-56
2024/02/29 11:19:07;;;;;;;9.40;4.60;;;11.10;92.00;;;;;;5084340;28;20024;-53
2024/02/29 11:21:33;;;;;;;7.75;4.63;;;11.10;92.40;;;;;;5088478;28;20063;-51
2024/02/29 11:24:09;;;;;;;10.38;4.22;;;11.10;92.70;;;;;;5065411;28;20751;-52
2024/02/29 11:26:36;;;;;;;12.45;5.43;;;11.20;93.10;;;;;;5084228;28;20039;-52
2024/02/29 11:29:14;;;;;;;13.60;5.43;;;11.10;92.10;;;;;;5085142;28;20033;-55
2024/02/29 11:31:48;;;;;;;8.88;4.15;;;11.30;92.70;;;;;;5082222;28;20035;-52
2024/02/29 11:34:16;;;;;;;6.88;4.05;;;11.60;92.70;;;;;;5087394;28;20028;-56
2024/02/29 11:36:44;;;;;;;7.50;3.83;;;11.90;92.10;;;;;;5085354;28;20028;-54
2024/02/29 11:39:10;;;;;;;16.90;5.63;;;12.20;92.30;;;;;;5090758;28;20032;-53
2024/02/29 11:41:36;;;;;;;7.28;4.07;;;12.30;91.90;;;;;;5086768;28;20024;-52
2024/02/29 11:44:02;;;;;;;7.70;4.05;;;12.30;91.00;;;;;;5090476;28;20016;-52
2024/02/29 11:46:28;;;;;;;8.00;3.85;;;12.20;91.20;;;;;;5089645;28;20050;-57
2024/02/29 11:48:53;;;;;;;5.50;3.25;;;12.20;91.30;;;;;;5070010;28;20024;-53
2024/02/29 11:51:19;;;;;;;6.80;3.58;;;12.20;91.40;;;;;;5083788;28;20036;-55
2024/02/29 11:53:45;;;;;;;7.28;3.92;;;12.20;91.60;;;;;;5082183;28;20031;-53
2024/02/29 11:56:11;;;;;;;5.63;3.35;;;12.00;91.80;;;;;;5081240;28;20029;-53
2024/02/29 11:58:36;;;;;;;9.05;3.58;;;12.00;92.30;;;;;;5065657;28;20757;-54
2024/02/29 12:01:02;;;;;;;13.55;3.97;;;12.10;92.00;;;;;;5082998;28;20028;-53
2024/02/29 12:03:31;;;;;;;6.75;3.70;;;12.30;91.80;;;;;;5089292;28;20405;-52
2024/02/29 12:05:58;;;;;;;6.75;3.55;;;12.30;91.90;;;;;;5084488;28;20055;-51
2024/02/29 12:08:27;;;;;;;6.95;3.47;;;12.40;91.40;;;;;;5070087;28;20016;-56
2024/02/29 12:11:00;;;;;;;7.03;3.20;;;12.50;92.50;;;;;;5078453;28;20086;-55
2024/02/29 12:13:27;;;;;;;7.22;4.13;;;12.50;91.20;;;;;;5084325;28;20105;-54
2024/02/29 12:15:54;;;;;;;7.97;3.65;;;12.50;91.20;;;;;;5089431;28;20498;-51
2024/02/29 12:18:20;;;;;;;6.65;3.60;;;12.70;91.70;;;;;;5086508;28;20024;-51
2024/02/29 12:20:51;;;;;;;7.47;3.63;;;12.70;92.10;;;;;;5081123;28;20030;-56
2024/02/29 12:23:18;;;;;;;6.68;3.80;;;13.00;91.80;;;;;;5087127;28;20059;-55
2024/02/29 12:25:44;;;;;;;5.55;3.20;;;13.00;90.70;;;;;;5085474;28;20024;-56
2024/02/29 12:28:11;;;;;;;7.88;3.65;;;13.00;91.00;;;;;;5088314;28;20026;-52
2024/02/29 12:30:37;;;;;;;5.05;3.17;;;13.00;90.20;;;;;;5065232;28;20032;-56
2024/02/29 12:33:03;;;;;;;6.32;3.58;;;13.10;90.30;;;;;;5086445;28;20041;-56
2024/02/29 12:35:31;;;;;;;7.63;3.45;;;13.00;90.90;;;;;;5090091;28;20048;-54
2024/02/29 12:37:57;;;;;;;5.15;3.17;;;13.00;91.80;;;;;;5089536;28;20016;-49